Terminal Aerodrome Forecast
Issued by NWS Bismarck, ND

Home | Current Version | Previous Version | Graphics & Text | Print | Product List | Glossary On
Versions: 1 2 3 4 5 6 7 8 9 10 11 12 13 14 15 16 17
817
FTUS43 KBIS 262112 AAC
TAFBIS
TAF AMD
KBIS 262112Z 2621/2718 05011KT P6SM OVC009
      TEMPO 2621/2623 BKN008 OVC015
     FM262300 07008KT P6SM VCSH OVC010
     FM270300 06006KT 5SM -RA BR OVC008
     FM270700 06010KT 3SM -RA SCT004 OVC011=

USA.gov is the U.S. government's official web portal to all federal, state and local government web resources and services.